createdAt,value
2018-11-01T00:01:26.574Z,7.83
2018-11-01T00:03:55.683Z,7.43
2018-11-01T00:06:24.614Z,7.30
2018-11-01T00:08:53.550Z,7.10
2018-11-01T00:11:22.531Z,7.47
2018-11-01T00:13:51.484Z,6.30
2018-11-01T00:16:20.484Z,7.53
2018-11-01T00:18:49.471Z,6.90
2018-11-01T00:21:18.410Z,6.93
2018-11-01T00:23:47.367Z,6.67
2018-11-01T00:26:16.291Z,6.20
2018-11-01T00:28:46.219Z,6.50
2018-11-01T00:31:15.190Z,6.17
2018-11-01T00:33:44.126Z,6.77
2018-11-01T00:36:13.115Z,6.20
2018-11-01T00:38:42.083Z,5.83
2018-11-01T00:41:11.010Z,5.73
2018-11-01T00:43:40.001Z,5.87
2018-11-01T00:46:08.967Z,5.73
2018-11-01T00:48:37.962Z,5.73
2018-11-01T00:51:07.101Z,6.10
2018-11-01T00:53:36.094Z,5.37
2018-11-01T00:56:05.047Z,4.90
2018-11-01T00:58:33.990Z,5.50
2018-11-01T01:01:02.938Z,5.27
2018-11-01T01:03:31.890Z,5.40
2018-11-01T01:06:00.802Z,5.87
2018-11-01T01:08:29.747Z,5.40
2018-11-01T01:10:58.707Z,4.67
2018-11-01T01:13:28.521Z,4.97
2018-11-01T01:15:58.538Z,4.87
2018-11-01T01:18:28.254Z,4.90
2018-11-01T01:20:57.495Z,4.90
2018-11-01T01:23:26.522Z,4.60
2018-11-01T01:25:55.502Z,4.67
2018-11-01T01:28:24.682Z,4.43
2018-11-01T01:30:53.798Z,4.37
2018-11-01T01:33:22.834Z,4.93
2018-11-01T01:35:51.885Z,4.67
2018-11-01T01:38:20.923Z,4.23
2018-11-01T01:40:49.906Z,4.57
2018-11-01T01:43:18.819Z,3.73
2018-11-01T01:45:47.740Z,4.17
2018-11-01T01:48:16.648Z,4.47
2018-11-01T01:50:45.607Z,4.30
2018-11-01T01:53:14.518Z,4.40
2018-11-01T01:55:43.429Z,4.13
2018-11-01T01:58:12.358Z,4.13
2018-11-01T02:00:41.258Z,4.03
2018-11-01T02:03:10.177Z,3.50
2018-11-01T02:05:39.114Z,4.10
2018-11-01T02:08:08.145Z,3.60
2018-11-01T02:10:37.090Z,3.73
2018-11-01T02:13:06.351Z,3.83
2018-11-01T02:15:35.378Z,3.67
2018-11-01T02:18:04.310Z,3.53
2018-11-01T02:20:33.250Z,3.27
2018-11-01T02:23:02.199Z,3.57
2018-11-01T02:25:31.119Z,3.67
2018-11-01T02:28:05.286Z,3.63
2018-11-01T02:30:34.227Z,3.47
2018-11-01T02:33:03.175Z,3.80
2018-11-01T02:35:32.530Z,4.10
2018-11-01T02:38:01.552Z,3.73
2018-11-01T02:40:31.392Z,3.40
2018-11-01T02:43:02.204Z,3.80
2018-11-01T02:45:31.099Z,3.40
2018-11-01T02:48:00.039Z,3.63
2018-11-01T02:50:28.996Z,3.83
2018-11-01T02:52:57.976Z,3.77
2018-11-01T02:55:26.897Z,3.33
2018-11-01T02:57:55.886Z,3.63
2018-11-01T03:00:24.832Z,3.57
2018-11-01T03:02:53.766Z,3.70
2018-11-01T03:05:22.703Z,3.83
2018-11-01T03:07:51.675Z,3.70
2018-11-01T03:10:20.594Z,3.50
2018-11-01T03:12:49.491Z,3.93
2018-11-01T03:15:18.394Z,4.07
2018-11-01T03:17:47.306Z,3.43
2018-11-01T03:20:16.255Z,3.70
2018-11-01T03:22:45.178Z,3.80
2018-11-01T03:25:14.102Z,3.53
2018-11-01T03:27:43.076Z,3.90
2018-11-01T03:30:12.078Z,3.57
2018-11-01T03:32:41.710Z,3.50
2018-11-01T03:35:11.803Z,3.77
2018-11-01T03:37:41.178Z,3.73
2018-11-01T03:40:10.950Z,3.93
2018-11-01T03:42:40.497Z,3.57
2018-11-01T03:45:10.712Z,3.40
2018-11-01T03:47:41.157Z,3.10
2018-11-01T03:50:10.955Z,3.50
2018-11-01T03:52:40.037Z,3.77
2018-11-01T03:55:10.380Z,3.83
2018-11-01T03:57:39.638Z,3.80
2018-11-01T04:00:10.873Z,3.33
2018-11-01T04:02:39.770Z,3.60
2018-11-01T04:05:08.746Z,3.80
2018-11-01T04:07:38.004Z,3.80
2018-11-01T04:10:08.027Z,4.00
2018-11-01T04:12:38.122Z,4.17
2018-11-01T04:15:11.214Z,3.93
2018-11-01T04:17:40.254Z,4.00
2018-11-01T04:20:10.546Z,4.27
2018-11-01T04:22:39.698Z,4.03
2018-11-01T04:25:08.619Z,3.87
2018-11-01T04:27:37.590Z,3.57
2018-11-01T04:30:07.288Z,3.63
2018-11-01T04:32:36.186Z,4.33
2018-11-01T04:35:05.363Z,4.00
2018-11-01T04:37:34.319Z,4.47
2018-11-01T04:40:03.294Z,4.20
2018-11-01T04:42:32.220Z,4.00
2018-11-01T04:45:01.296Z,4.03
2018-11-01T04:47:30.243Z,4.70
2018-11-01T04:49:59.146Z,3.87
2018-11-01T04:52:28.224Z,3.83
2018-11-01T04:54:58.373Z,5.07
2018-11-01T04:57:27.311Z,4.70
2018-11-01T04:59:56.228Z,4.50
2018-11-01T05:02:25.526Z,4.60
2018-11-01T05:04:54.491Z,5.03
2018-11-01T05:07:23.828Z,4.97
2018-11-01T05:09:52.735Z,4.73
2018-11-01T05:12:21.663Z,4.70
2018-11-01T05:14:50.604Z,5.40
2018-11-01T05:17:19.551Z,4.60
2018-11-01T05:19:48.473Z,4.40
2018-11-01T05:22:17.390Z,4.23
2018-11-01T05:24:46.408Z,4.33
2018-11-01T05:27:15.330Z,4.70
2018-11-01T05:29:44.334Z,4.00
2018-11-01T05:32:13.309Z,4.07
2018-11-01T05:34:42.289Z,4.30
2018-11-01T05:37:11.274Z,3.97
2018-11-01T05:39:40.303Z,4.57
2018-11-01T05:42:09.317Z,4.10
2018-11-01T05:44:38.282Z,4.50
2018-11-01T05:47:07.201Z,4.00
2018-11-01T05:49:37.064Z,4.53
2018-11-01T05:52:07.140Z,4.37
2018-11-01T05:54:36.278Z,3.90
2018-11-01T05:57:05.331Z,4.10
2018-11-01T05:59:34.286Z,3.97
2018-11-01T06:02:08.483Z,4.17
2018-11-01T06:04:37.425Z,3.93
2018-11-01T06:07:06.434Z,3.50
2018-11-01T06:09:35.549Z,3.30
2018-11-01T06:12:04.577Z,3.95
2018-11-01T06:14:33.617Z,3.23
2018-11-01T06:17:02.731Z,3.77
2018-11-01T06:19:31.803Z,3.85
2018-11-01T06:22:04.791Z,4.00
2018-11-01T06:24:33.855Z,3.80
2018-11-01T06:27:05.525Z,3.23
2018-11-01T06:29:44.041Z,3.27
2018-11-01T06:32:12.943Z,3.73
2018-11-01T06:34:46.978Z,3.67
2018-11-01T06:37:16.286Z,3.70
2018-11-01T06:39:45.222Z,3.83
2018-11-01T06:42:14.177Z,4.23
2018-11-01T06:44:43.263Z,3.40
2018-11-01T06:47:12.115Z,3.40
2018-11-01T06:49:41.042Z,3.40
2018-11-01T06:52:09.998Z,3.20
2018-11-01T06:54:38.906Z,3.30
2018-11-01T06:57:08.109Z,3.27
2018-11-01T06:59:37.083Z,3.50
2018-11-01T07:02:06.239Z,3.40
2018-11-01T07:04:35.182Z,3.33
2018-11-01T07:07:04.161Z,3.07
2018-11-01T07:09:33.088Z,3.63
2018-11-01T07:12:02.055Z,3.47
2018-11-01T07:14:30.970Z,4.10
2018-11-01T07:17:00.555Z,3.30
2018-11-01T07:19:30.921Z,3.20
2018-11-01T07:22:00.208Z,3.63
2018-11-01T07:24:29.160Z,3.20
2018-11-01T07:26:58.086Z,3.27
2018-11-01T07:29:27.029Z,3.03
2018-11-01T07:31:55.948Z,2.93
2018-11-01T07:34:25.170Z,3.73
2018-11-01T07:36:57.027Z,3.27
2018-11-01T07:39:25.974Z,2.90
2018-11-01T07:41:55.098Z,3.10
2018-11-01T07:44:24.166Z,3.17
2018-11-01T07:46:53.098Z,2.90
2018-11-01T07:49:22.068Z,3.30
2018-11-01T07:51:51.041Z,3.20
2018-11-01T07:54:19.987Z,3.37
2018-11-01T07:56:49.016Z,2.77
2018-11-01T07:59:17.963Z,2.43
2018-11-01T08:01:46.927Z,2.67
2018-11-01T08:04:15.870Z,2.73
2018-11-01T08:06:44.840Z,2.80
2018-11-01T08:09:13.783Z,3.00
2018-11-01T08:11:42.854Z,2.80
2018-11-01T08:14:12.123Z,2.53
2018-11-01T08:16:41.855Z,2.67
2018-11-01T08:19:10.884Z,3.10
2018-11-01T08:21:39.818Z,2.90
2018-11-01T08:24:08.808Z,2.77
2018-11-01T08:26:37.763Z,2.30
2018-11-01T08:29:06.706Z,2.63
2018-11-01T08:31:35.682Z,2.50
2018-11-01T08:34:04.787Z,2.63
2018-11-01T08:36:33.731Z,2.70
2018-11-01T08:39:02.723Z,2.80
2018-11-01T08:41:31.747Z,3.00
2018-11-01T08:44:00.706Z,2.63
2018-11-01T08:46:29.679Z,2.87
2018-11-01T08:48:58.586Z,2.40
2018-11-01T08:51:27.482Z,2.50
2018-11-01T08:53:56.399Z,2.67
2018-11-01T08:56:25.367Z,2.70
2018-11-01T08:58:54.387Z,2.67
2018-11-01T09:01:23.886Z,2.40
2018-11-01T09:03:53.046Z,2.10
2018-11-01T09:06:26.251Z,2.50
2018-11-01T09:08:57.676Z,2.40
2018-11-01T09:11:26.634Z,2.07
2018-11-01T09:13:55.572Z,2.27
2018-11-01T09:16:25.640Z,2.33
2018-11-01T09:18:55.759Z,2.30
2018-11-01T09:21:24.717Z,2.50
2018-11-01T09:23:58.901Z,2.30
2018-11-01T09:26:28.788Z,2.60
2018-11-01T09:28:57.840Z,2.20
2018-11-01T09:31:28.980Z,2.10
2018-11-01T09:33:58.897Z,2.50
2018-11-01T09:36:27.867Z,2.73
2018-11-01T09:38:56.781Z,2.40
2018-11-01T09:41:25.736Z,2.30
2018-11-01T09:43:54.662Z,2.70
2018-11-01T09:46:23.745Z,3.00
2018-11-01T09:48:52.559Z,2.60
2018-11-01T09:51:21.547Z,2.30
2018-11-01T09:53:50.570Z,2.60
2018-11-01T09:56:19.516Z,2.40
2018-11-01T09:58:48.693Z,2.93
2018-11-01T10:01:17.631Z,2.27
2018-11-01T10:03:46.794Z,2.30
2018-11-01T10:06:15.781Z,2.80
2018-11-01T10:08:44.753Z,2.57
2018-11-01T10:11:13.847Z,2.98
2018-11-01T10:13:44.010Z,2.57
2018-11-01T10:16:13.397Z,2.77
2018-11-01T10:18:42.883Z,2.43
2018-11-01T10:21:11.975Z,2.80
2018-11-01T10:23:40.918Z,2.90
2018-11-01T10:26:09.918Z,3.00
2018-11-01T10:28:38.987Z,2.47
2018-11-01T10:31:08.023Z,2.27
2018-11-01T10:33:40.984Z,2.60
2018-11-01T10:36:10.235Z,2.40
2018-11-01T10:38:39.238Z,2.60
2018-11-01T10:41:08.280Z,2.60
2018-11-01T10:43:37.515Z,2.53
2018-11-01T10:46:06.542Z,2.10
2018-11-01T10:48:35.652Z,2.63
2018-11-01T10:52:33.790Z,2.57
2018-11-01T10:55:03.604Z,2.40
2018-11-01T10:57:32.875Z,2.57
2018-11-01T11:00:09.808Z,2.43
2018-11-01T11:02:40.902Z,2.60
2018-11-01T11:05:09.865Z,2.60
2018-11-01T11:07:39.059Z,2.53
2018-11-01T11:10:09.093Z,2.23
2018-11-01T11:12:38.094Z,2.33
2018-11-01T11:15:08.383Z,2.70
2018-11-01T11:17:37.464Z,2.47
2018-11-01T11:20:07.164Z,2.30
2018-11-01T11:22:36.568Z,2.30
2018-11-01T11:25:06.905Z,2.73
2018-11-01T11:27:35.847Z,2.30
2018-11-01T11:30:05.491Z,2.30
2018-11-01T11:32:34.426Z,2.00
2018-11-01T11:35:04.202Z,2.20
2018-11-01T11:37:34.257Z,2.10
2018-11-01T11:40:03.799Z,2.67
2018-11-01T11:42:32.747Z,2.03
2018-11-01T11:45:01.701Z,2.57
2018-11-01T11:47:30.841Z,2.40
2018-11-01T11:49:59.763Z,2.60
2018-11-01T11:52:28.763Z,2.70
2018-11-01T11:54:57.731Z,2.30
2018-11-01T11:57:26.652Z,2.63
2018-11-01T11:59:55.583Z,2.00
2018-11-01T12:02:24.591Z,2.40
2018-11-01T12:04:53.478Z,2.30
2018-11-01T12:07:22.606Z,2.23
2018-11-01T12:09:51.542Z,2.03
2018-11-01T12:12:20.461Z,1.90
2018-11-01T12:14:49.467Z,2.30
2018-11-01T12:17:18.398Z,2.27
2018-11-01T12:19:47.376Z,2.20
2018-11-01T12:22:18.955Z,1.93
2018-11-01T12:24:52.513Z,2.33
2018-11-01T12:27:21.601Z,2.40
2018-11-01T12:29:50.627Z,2.10
2018-11-01T12:32:19.575Z,2.47
2018-11-01T12:34:48.524Z,1.67
2018-11-01T12:37:17.502Z,2.20
2018-11-01T12:39:46.467Z,2.23
2018-11-01T12:42:15.394Z,2.13
2018-11-01T12:44:44.326Z,2.17
2018-11-01T12:47:13.298Z,2.20
2018-11-01T12:49:42.290Z,2.60
2018-11-01T12:52:11.309Z,2.40
2018-11-01T12:54:40.258Z,2.03
2018-11-01T12:57:09.213Z,2.40
2018-11-01T12:59:38.144Z,2.40
2018-11-01T13:02:07.053Z,2.40
2018-11-01T13:04:36.022Z,2.20
2018-11-01T13:07:05.198Z,2.63
2018-11-01T13:09:34.115Z,2.63
2018-11-01T13:12:03.357Z,2.43
2018-11-01T13:14:32.305Z,2.30
2018-11-01T13:17:01.219Z,2.60
2018-11-01T13:19:30.521Z,2.40
2018-11-01T13:21:59.580Z,2.40
2018-11-01T13:24:28.526Z,2.70
2018-11-01T13:26:57.447Z,2.30
2018-11-01T13:29:29.217Z,2.17
2018-11-01T13:31:58.935Z,2.47
2018-11-01T13:34:28.549Z,2.57
2018-11-01T13:36:59.570Z,2.20
2018-11-01T13:39:29.600Z,2.20
2018-11-01T13:41:58.463Z,2.30
2018-11-01T13:44:27.363Z,2.40
2018-11-01T13:46:56.338Z,2.33
2018-11-01T13:49:25.472Z,2.43
2018-11-01T13:51:55.930Z,2.67
2018-11-01T13:54:35.041Z,2.90
2018-11-01T13:57:06.707Z,2.80
2018-11-01T13:59:38.981Z,2.43
2018-11-01T14:02:07.857Z,2.93
2018-11-01T14:04:41.854Z,2.90
2018-11-01T14:07:14.900Z,3.30
2018-11-01T14:11:13.812Z,3.53
2018-11-01T14:13:44.359Z,3.40
2018-11-01T14:16:17.833Z,3.10
2018-11-01T14:18:46.997Z,3.50
2018-11-01T14:21:15.930Z,2.77
2018-11-01T14:23:47.270Z,2.80
2018-11-01T14:29:02.699Z,3.13
2018-11-01T14:31:32.279Z,3.17
2018-11-01T14:34:01.245Z,3.23
2018-11-01T14:36:30.214Z,2.80
2018-11-01T14:38:59.138Z,2.63
2018-11-01T14:41:28.140Z,2.80
2018-11-01T14:43:57.053Z,2.47
2018-11-01T14:46:26.022Z,2.33
2018-11-01T14:48:54.987Z,2.73
2018-11-01T14:51:23.951Z,2.53
2018-11-01T14:53:53.684Z,2.20
2018-11-01T14:56:23.104Z,3.07
2018-11-01T14:58:51.497Z,2.43
2018-11-01T15:01:27.378Z,2.20
2018-11-01T15:03:56.933Z,2.90
2018-11-01T15:06:26.881Z,2.83
2018-11-01T15:08:55.880Z,2.93
2018-11-01T15:11:26.209Z,2.57
2018-11-01T15:13:57.606Z,2.63
2018-11-01T15:16:37.910Z,2.63
2018-11-01T15:19:15.533Z,3.30
2018-11-01T15:21:51.908Z,2.90
2018-11-01T15:24:34.759Z,3.37
2018-11-01T15:27:16.023Z,3.17
2018-11-01T15:29:47.127Z,3.10
2018-11-01T15:32:24.228Z,3.27
2018-11-01T15:35:00.899Z,2.90
2018-11-01T15:37:40.047Z,3.10
2018-11-01T15:40:16.266Z,2.93
2018-11-01T15:42:50.483Z,3.20
2018-11-01T15:45:29.970Z,3.10
2018-11-01T15:48:03.523Z,3.40
2018-11-01T15:50:33.132Z,3.53
2018-11-01T15:53:10.948Z,3.07
2018-11-01T15:55:54.015Z,3.40
2018-11-01T15:58:27.867Z,3.30
2018-11-01T16:00:56.882Z,3.37
2018-11-01T16:03:25.888Z,3.20
2018-11-01T16:06:08.019Z,3.60
2018-11-01T16:08:52.663Z,3.07
2018-11-01T16:11:27.370Z,3.30
2018-11-01T16:14:11.510Z,3.20
2018-11-01T16:16:48.159Z,3.43
2018-11-01T16:19:32.274Z,4.00
2018-11-01T16:22:11.586Z,3.87
2018-11-01T16:25:08.594Z,4.20
2018-11-01T16:27:37.769Z,4.67
2018-11-01T16:30:07.667Z,5.30
2018-11-01T16:32:36.747Z,4.33
2018-11-01T16:35:06.279Z,4.77
2018-11-01T16:37:35.248Z,4.70
2018-11-01T16:40:05.039Z,4.73
2018-11-01T16:47:22.602Z,3.93
2018-11-01T16:49:55.857Z,4.37
2018-11-01T16:52:24.783Z,4.40
2018-11-01T16:54:53.751Z,4.43
2018-11-01T16:57:22.701Z,4.80
2018-11-01T16:59:51.661Z,4.27
2018-11-01T17:02:20.665Z,5.00
2018-11-01T17:04:49.687Z,4.50
2018-11-01T17:07:18.719Z,4.57
2018-11-01T17:09:47.685Z,5.47
2018-11-01T17:12:16.690Z,4.47
2018-11-01T17:14:45.672Z,4.87
2018-11-01T17:17:14.643Z,4.83
2018-11-01T17:19:43.588Z,4.70
2018-11-01T17:22:12.656Z,4.97
2018-11-01T17:24:41.591Z,4.70
2018-11-01T17:27:10.526Z,5.13
2018-11-01T17:29:39.482Z,5.07
2018-11-01T17:32:08.475Z,5.17
2018-11-01T17:34:37.530Z,4.70
2018-11-01T17:37:06.525Z,4.90
2018-11-01T17:39:35.572Z,5.43
2018-11-01T17:42:04.619Z,4.63
2018-11-01T17:44:33.682Z,4.97
2018-11-01T17:47:02.735Z,4.80
2018-11-01T17:49:31.716Z,5.00
2018-11-01T17:53:03.467Z,5.83
2018-11-01T17:55:32.427Z,5.33
2018-11-01T17:58:01.349Z,5.17
2018-11-01T18:00:31.680Z,4.97
2018-11-01T18:03:02.195Z,4.90
2018-11-01T18:05:31.187Z,5.70
2018-11-01T18:08:00.310Z,5.70
2018-11-01T18:10:29.262Z,5.03
2018-11-01T18:12:58.193Z,5.30
2018-11-01T18:15:27.446Z,4.87
2018-11-01T18:17:56.538Z,4.93
2018-11-01T18:20:25.547Z,4.93
2018-11-01T18:22:55.163Z,5.10
2018-11-01T18:25:24.296Z,5.03
2018-11-01T18:27:53.281Z,5.43
2018-11-01T18:30:23.086Z,5.30
2018-11-01T18:33:02.744Z,5.33
2018-11-01T18:35:32.760Z,5.03
2018-11-01T18:38:02.126Z,5.00
2018-11-01T18:40:31.313Z,5.13
2018-11-01T18:43:01.272Z,5.00
2018-11-01T18:45:30.314Z,5.43
2018-11-01T18:47:59.308Z,5.13
2018-11-01T18:50:28.690Z,4.85
2018-11-01T18:52:58.528Z,5.30
2018-11-01T18:55:27.614Z,5.10
2018-11-01T18:57:56.653Z,5.10
2018-11-01T19:00:25.843Z,4.77
2018-11-01T19:03:08.423Z,5.80
2018-11-01T19:05:37.410Z,6.17
2018-11-01T19:08:06.536Z,5.83
2018-11-01T19:10:35.721Z,5.90
2018-11-01T19:13:05.619Z,6.33
2018-11-01T19:15:34.559Z,7.60
2018-11-01T19:18:03.605Z,7.33
2018-11-01T19:20:32.553Z,7.67
2018-11-01T19:23:01.511Z,7.17
2018-11-01T19:25:30.515Z,7.37
2018-11-01T19:27:59.522Z,7.77
2018-11-01T19:30:28.438Z,8.03
2018-11-01T19:32:57.483Z,8.50
2018-11-01T19:35:26.447Z,8.33
2018-11-01T19:37:55.399Z,9.23
2018-11-01T19:40:24.399Z,8.40
2018-11-01T19:42:53.390Z,8.33
2018-11-01T19:45:22.355Z,7.73
2018-11-01T19:47:51.445Z,8.37
2018-11-01T19:50:20.388Z,8.13
2018-11-01T19:52:49.507Z,8.20
2018-11-01T19:55:18.506Z,7.70
2018-11-01T19:57:47.575Z,8.03
2018-11-01T20:00:17.672Z,7.97
2018-11-01T20:02:47.603Z,8.20
2018-11-01T20:05:16.443Z,8.00
2018-11-01T20:07:45.535Z,7.73
2018-11-01T20:10:15.296Z,8.50
2018-11-01T20:12:44.570Z,8.90
2018-11-01T20:15:13.543Z,8.20
2018-11-01T20:17:43.410Z,9.10
2018-11-01T20:20:13.271Z,9.20
2018-11-01T20:22:43.267Z,8.97
2018-11-01T20:25:12.219Z,9.27
2018-11-01T20:27:41.288Z,9.57
2018-11-01T20:30:12.716Z,9.17
2018-11-01T20:32:42.931Z,9.60
2018-11-01T20:35:13.444Z,9.43
2018-11-01T20:37:42.754Z,9.00
2018-11-01T20:40:11.735Z,9.43
2018-11-01T20:42:41.319Z,9.97
2018-11-01T20:45:11.386Z,9.97
2018-11-01T20:47:40.694Z,9.90
2018-11-01T20:50:11.258Z,9.43
2018-11-01T20:52:41.821Z,9.80
2018-11-01T20:55:10.953Z,10.50
2018-11-01T20:57:40.015Z,10.00
2018-11-01T21:00:10.897Z,10.50
2018-11-01T21:02:40.235Z,10.70
2018-11-01T21:05:09.360Z,10.43
2018-11-01T21:07:38.274Z,10.73
2018-11-01T21:10:09.116Z,11.10
2018-11-01T21:12:38.856Z,11.23
2018-11-01T21:15:09.450Z,11.37
2018-11-01T21:17:38.567Z,12.17
2018-11-01T21:20:07.714Z,12.77
2018-11-01T21:22:36.657Z,12.90
2018-11-01T21:25:06.055Z,12.73
2018-11-01T21:27:35.078Z,13.23
2018-11-01T21:30:04.204Z,14.47
2018-11-01T21:32:42.604Z,14.63
2018-11-01T21:35:11.787Z,15.47
2018-11-01T21:37:40.725Z,15.10
2018-11-01T21:40:10.603Z,15.17
2018-11-01T21:42:39.553Z,14.77
2018-11-01T21:45:10.986Z,15.43
2018-11-01T21:47:39.965Z,14.60
2018-11-01T21:50:09.347Z,15.40
2018-11-01T21:52:44.420Z,14.93
2018-11-01T21:55:18.553Z,15.37
2018-11-01T21:57:55.515Z,16.30
2018-11-01T22:00:24.487Z,15.63
2018-11-01T22:02:53.484Z,16.30
2018-11-01T22:05:22.420Z,16.23
2018-11-01T22:07:51.354Z,17.07
2018-11-01T22:10:20.291Z,16.43
2018-11-01T22:12:49.296Z,18.40
2018-11-01T22:15:21.864Z,17.60
2018-11-01T22:18:05.394Z,17.57
2018-11-01T22:20:44.898Z,19.00
2018-11-01T22:23:19.075Z,17.27
2018-11-01T22:25:51.080Z,18.43
2018-11-01T22:28:23.330Z,17.67
2018-11-01T22:31:00.743Z,17.87
2018-11-01T22:33:36.816Z,17.73
2018-11-01T22:36:25.889Z,18.00
2018-11-01T22:38:54.911Z,17.80
2018-11-01T22:41:23.912Z,18.27
2018-11-01T22:43:52.888Z,18.70
2018-11-01T22:46:22.059Z,17.97
2018-11-01T22:48:51.051Z,19.50
2018-11-01T22:51:20.295Z,18.67
2018-11-01T22:53:49.291Z,17.87
2018-11-01T22:56:18.207Z,18.90
2018-11-01T22:58:47.946Z,18.73
2018-11-01T23:01:16.943Z,18.90
2018-11-01T23:03:45.960Z,19.10
2018-11-01T23:06:14.907Z,18.57
2018-11-01T23:08:43.868Z,17.50
2018-11-01T23:11:12.791Z,18.17
2018-11-01T23:13:41.986Z,17.00
2018-11-01T23:16:10.955Z,17.83
2018-11-01T23:18:39.970Z,16.67
2018-11-01T23:21:08.983Z,17.63
2018-11-01T23:23:37.970Z,16.40
2018-11-01T23:26:07.079Z,16.50
2018-11-01T23:28:36.005Z,16.53
2018-11-01T23:31:05.379Z,15.83
2018-11-01T23:33:34.440Z,15.60
2018-11-01T23:36:03.644Z,15.13
2018-11-01T23:38:37.841Z,15.77
2018-11-01T23:41:12.270Z,14.63
2018-11-01T23:43:46.455Z,10.80
2018-11-01T23:46:20.714Z,8.10
2018-11-01T23:48:56.032Z,5.90
2018-11-01T23:51:24.979Z,4.97
2018-11-01T23:53:54.478Z,3.93
2018-11-01T23:56:23.409Z,3.37
2018-11-01T23:58:52.331Z,2.10
